Time;durP1;ratioP1;P1;durP2;ratioP2;P2;SDS_P1;SDS_P2;PMS_P1;PMS_P2;Temp;Humidity;BMP_temperature;BMP_pressure;BME280_temperature;BME280_humidity;BME280_pressure;Samples;Min_cycle;Max_cycle;Signal;HPM_P1;HPM_P2
2023/10/04 00:00:21;;;;;;;5.55;1.90;;;13.00;99.90;;;;;;5066699;28;20189;-87
2023/10/04 00:02:49;;;;;;;1.77;1.60;;;12.90;99.90;;;;;;5065312;28;20196;-87
2023/10/04 00:05:19;;;;;;;6.55;2.65;;;12.50;99.90;;;;;;5064963;28;20196;-87
2023/10/04 00:07:50;;;;;;;6.53;2.13;;;12.90;99.90;;;;;;5064740;28;20471;-87
2023/10/04 00:10:16;;;;;;;2.45;1.95;;;13.00;99.90;;;;;;5059082;28;20192;-87
2023/10/04 00:12:43;;;;;;;2.55;1.98;;;13.00;99.90;;;;;;5063618;28;20209;-87
2023/10/04 00:15:10;;;;;;;2.30;1.63;;;12.90;99.90;;;;;;5059757;28;20183;-87
2023/10/04 00:17:41;;;;;;;2.15;1.95;;;12.80;99.90;;;;;;5059848;28;20241;-87
2023/10/04 00:20:10;;;;;;;3.60;2.00;;;12.40;99.90;;;;;;5074907;28;20177;-87
2023/10/04 00:22:36;;;;;;;3.92;2.28;;;12.80;99.90;;;;;;5059584;28;20217;-88
2023/10/04 00:25:03;;;;;;;1.92;1.70;;;12.50;99.90;;;;;;5065481;28;20205;-87
2023/10/04 00:27:30;;;;;;;5.25;1.90;;;12.70;99.90;;;;;;5065983;28;20188;-88
2023/10/04 00:29:56;;;;;;;3.15;2.10;;;13.00;99.90;;;;;;5069183;28;20219;-87
2023/10/04 00:32:21;;;;;;;2.73;1.80;;;12.90;99.90;;;;;;5059733;28;20295;-87
2023/10/04 00:34:47;;;;;;;3.37;1.90;;;13.20;99.90;;;;;;5070646;28;20188;-87
2023/10/04 00:37:15;;;;;;;2.60;2.03;;;12.90;99.90;;;;;;5064442;28;20716;-87
2023/10/04 00:39:41;;;;;;;2.88;2.00;;;12.70;99.90;;;;;;5067045;28;20641;-88
2023/10/04 00:42:06;;;;;;;2.40;1.73;;;12.60;99.90;;;;;;5065185;28;20212;-87
2023/10/04 00:44:35;;;;;;;3.13;1.93;;;12.90;99.90;;;;;;5060005;28;20443;-88
2023/10/04 00:47:05;;;;;;;2.15;1.80;;;12.60;99.90;;;;;;5062425;28;20282;-87
2023/10/04 00:49:32;;;;;;;4.63;1.92;;;13.20;99.90;;;;;;5061519;28;20180;-87
2023/10/04 00:52:01;;;;;;;3.45;2.00;;;12.80;99.90;;;;;;5056839;28;20181;-88
2023/10/04 00:54:27;;;;;;;2.05;1.80;;;12.80;99.90;;;;;;5074175;28;20186;-88
2023/10/04 00:56:53;;;;;;;2.50;2.00;;;12.40;99.90;;;;;;5061134;28;20208;-88
2023/10/04 00:59:19;;;;;;;4.00;2.00;;;12.40;99.90;;;;;;5074332;28;20219;-87
2023/10/04 01:01:44;;;;;;;1.85;1.63;;;13.00;99.90;;;;;;5086933;28;20194;-88
2023/10/04 01:04:10;;;;;;;2.33;1.90;;;12.50;99.90;;;;;;5081848;28;20184;-87
2023/10/04 01:06:37;;;;;;;2.08;1.88;;;13.00;99.90;;;;;;5085253;28;20200;-87
2023/10/04 01:09:04;;;;;;;2.75;2.10;;;12.00;99.90;;;;;;5080614;28;20195;-88
2023/10/04 01:11:35;;;;;;;2.28;2.00;;;12.20;99.90;;;;;;5084762;28;20189;-87
2023/10/04 01:14:18;;;;;;;2.28;2.08;;;12.70;99.90;;;;;;5088578;28;20204;-87
2023/10/04 01:16:44;;;;;;;2.47;2.22;;;12.30;99.90;;;;;;5074341;28;20201;-88
2023/10/04 01:19:14;;;;;;;3.77;2.00;;;12.40;99.90;;;;;;5077425;28;20168;-88
2023/10/04 01:21:40;;;;;;;3.08;2.50;;;12.10;99.90;;;;;;5068853;28;20444;-88
2023/10/04 01:24:09;;;;;;;2.07;1.87;;;12.30;99.90;;;;;;5088780;28;20200;-88
2023/10/04 01:26:36;;;;;;;2.80;2.03;;;12.30;99.90;;;;;;5074325;28;20193;-88
2023/10/04 01:29:10;;;;;;;2.22;1.90;;;12.60;99.90;;;;;;5066978;28;20211;-88
2023/10/04 01:31:35;;;;;;;2.92;1.95;;;12.50;99.90;;;;;;5068177;28;20196;-88
2023/10/04 01:34:03;;;;;;;4.37;2.43;;;12.40;99.90;;;;;;5074270;28;20201;-88
2023/10/04 01:36:31;;;;;;;3.40;1.95;;;12.70;99.90;;;;;;5070919;28;20209;-88
2023/10/04 01:38:57;;;;;;;2.20;1.95;;;12.70;99.90;;;;;;5064998;28;20176;-88
2023/10/04 01:41:24;;;;;;;2.72;1.85;;;12.40;99.90;;;;;;5063043;28;20667;-88
2023/10/04 01:43:53;;;;;;;2.55;2.00;;;12.60;99.90;;;;;;5056928;28;20720;-88
2023/10/04 01:46:19;;;;;;;2.92;2.40;;;12.60;99.90;;;;;;5057720;28;20197;-88
2023/10/04 01:48:45;;;;;;;4.47;2.10;;;12.80;99.90;;;;;;5057550;28;20207;-88
2023/10/04 01:51:12;;;;;;;2.60;1.60;;;12.50;99.90;;;;;;5057860;28;20439;-88
2023/10/04 01:53:38;;;;;;;3.20;2.00;;;12.80;99.90;;;;;;5069538;28;20451;-88
2023/10/04 01:56:06;;;;;;;3.40;1.90;;;12.00;99.90;;;;;;5064492;28;20567;-88
2023/10/04 01:58:31;;;;;;;2.97;2.30;;;12.30;99.90;;;;;;5069772;28;20181;-88
2023/10/04 02:00:57;;;;;;;3.17;2.03;;;11.80;99.90;;;;;;5066110;28;20177;-88
2023/10/04 02:03:24;;;;;;;2.40;2.20;;;12.40;99.90;;;;;;5065716;28;20201;-88
2023/10/04 02:05:52;;;;;;;2.15;1.95;;;12.40;99.90;;;;;;5068144;28;20216;-88
2023/10/04 02:08:18;;;;;;;2.40;1.58;;;12.60;99.90;;;;;;5065893;28;20197;-88
2023/10/04 02:10:46;;;;;;;1.83;1.60;;;12.00;99.90;;;;;;5064779;28;20185;-88
2023/10/04 02:13:15;;;;;;;2.40;1.90;;;12.10;99.90;;;;;;5067669;28;20208;-88
2023/10/04 02:15:42;;;;;;;2.30;1.83;;;12.30;99.90;;;;;;5074783;28;20234;-88
2023/10/04 02:18:08;;;;;;;2.42;2.20;;;11.90;99.90;;;;;;5063745;28;20177;-88
2023/10/04 02:20:35;;;;;;;2.35;2.10;;;12.20;99.90;;;;;;5064386;28;20178;-88
2023/10/04 02:23:07;;;;;;;4.65;2.08;;;12.40;99.90;;;;;;5067987;28;20584;-88
2023/10/04 02:25:33;;;;;;;3.20;2.67;;;12.50;99.90;;;;;;5064099;28;20182;-88
2023/10/04 02:28:09;;;;;;;2.67;2.05;;;12.10;99.90;;;;;;5068111;28;20268;-87
2023/10/04 02:30:36;;;;;;;3.03;2.00;;;12.50;99.90;;;;;;5061171;28;20212;-88
2023/10/04 02:33:01;;;;;;;3.28;2.50;;;12.40;99.90;;;;;;5063100;28;20292;-88
2023/10/04 02:35:28;;;;;;;3.73;2.50;;;12.10;99.90;;;;;;5061060;28;20296;-87
2023/10/04 02:38:08;;;;;;;3.45;1.85;;;12.10;99.90;;;;;;5066842;28;20640;-88
2023/10/04 02:40:34;;;;;;;3.40;2.50;;;11.60;99.90;;;;;;5066388;28;20207;-87
2023/10/04 02:43:00;;;;;;;4.00;2.30;;;12.40;99.90;;;;;;5058256;28;20694;-88
2023/10/04 02:45:27;;;;;;;4.07;2.25;;;11.80;99.90;;;;;;5062313;28;20455;-88
2023/10/04 02:47:53;;;;;;;2.47;1.80;;;12.20;99.90;;;;;;5060676;28;20269;-88
2023/10/04 02:50:22;;;;;;;2.85;1.80;;;12.10;99.90;;;;;;5068045;28;20193;-88
2023/10/04 02:52:50;;;;;;;2.85;2.35;;;11.60;99.90;;;;;;5070493;28;20207;-88
2023/10/04 02:55:17;;;;;;;4.25;2.78;;;11.90;99.90;;;;;;5060852;28;20276;-88
2023/10/04 02:57:44;;;;;;;2.60;2.00;;;11.60;99.90;;;;;;5067348;28;20212;-87
2023/10/04 03:00:15;;;;;;;2.30;2.08;;;11.90;99.90;;;;;;5060306;28;20729;-88
2023/10/04 03:02:45;;;;;;;2.92;2.08;;;12.00;99.90;;;;;;5068753;28;20291;-88
2023/10/04 03:05:12;;;;;;;2.80;2.22;;;12.20;99.90;;;;;;5059561;28;20679;-88
2023/10/04 03:07:38;;;;;;;2.88;2.20;;;12.00;99.90;;;;;;5061739;28;20180;-88
2023/10/04 03:10:06;;;;;;;5.47;2.50;;;11.50;99.90;;;;;;5058574;28;20318;-87
2023/10/04 03:12:31;;;;;;;6.32;2.30;;;12.00;99.90;;;;;;5061291;28;20216;-88
2023/10/04 03:14:57;;;;;;;2.20;2.00;;;12.40;99.90;;;;;;5065609;22;20283;-87
2023/10/04 03:17:23;;;;;;;2.60;2.30;;;;;;;;;;5050810;28;20248;-87
2023/10/04 03:19:48;;;;;;;4.80;2.88;;;11.90;99.90;;;;;;5048427;28;20524;-88
2023/10/04 03:22:22;;;;;;;3.17;2.33;;;;;;;;;;5050804;28;20263;-88
2023/10/04 03:24:51;;;;;;;3.45;1.83;;;12.10;99.90;;;;;;5052453;28;20181;-88
2023/10/04 03:27:21;;;;;;;4.80;2.38;;;12.40;99.90;;;;;;5053615;28;20195;-87
2023/10/04 03:29:52;;;;;;;3.17;2.40;;;12.00;99.90;;;;;;5051753;28;20234;-88
2023/10/04 03:32:18;;;;;;;4.22;2.38;;;11.90;99.90;;;;;;5050342;28;20269;-88
2023/10/04 03:34:44;;;;;;;5.10;3.30;;;11.70;99.90;;;;;;5053715;28;20288;-88
2023/10/04 03:37:13;;;;;;;2.10;1.90;;;12.00;99.90;;;;;;5052844;28;20296;-87
2023/10/04 03:39:39;;;;;;;3.92;2.53;;;11.90;99.90;;;;;;5049146;28;20553;-88
2023/10/04 03:42:06;;;;;;;4.05;2.28;;;12.20;99.90;;;;;;5050070;28;20194;-88
2023/10/04 03:44:31;;;;;;;4.97;2.40;;;11.90;99.90;;;;;;5050175;28;20654;-88
2023/10/04 03:46:57;;;;;;;3.60;2.50;;;11.80;99.90;;;;;;5051612;28;20173;-89
2023/10/04 03:49:26;;;;;;;2.37;2.17;;;11.70;99.90;;;;;;5051228;28;20209;-88
2023/10/04 03:51:53;;;;;;;4.90;2.60;;;11.90;99.90;;;;;;5046218;28;20218;-88
2023/10/04 03:54:19;;;;;;;2.55;2.35;;;11.90;99.90;;;;;;5067838;28;20196;-89
2023/10/04 03:56:45;;;;;;;3.75;2.25;;;12.00;99.90;;;;;;5048461;28;20217;-88
2023/10/04 03:59:11;;;;;;;4.37;2.33;;;12.00;99.90;;;;;;5046872;28;20203;-88
2023/10/04 04:01:37;;;;;;;2.47;2.22;;;11.90;99.90;;;;;;5050079;28;20427;-92
2023/10/04 04:05:02;;;;;;;2.97;2.67;;;12.20;99.90;;;;;;5100926;22;20236;-91
2023/10/04 04:07:28;;;;;;;4.47;2.40;;;12.60;99.90;;;;;;4970166;28;20195;-89
2023/10/04 04:10:03;;;;;;;3.70;2.60;;;12.50;99.90;;;;;;5064593;28;20484;-89
2023/10/04 04:12:34;;;;;;;6.60;3.20;;;10.90;99.90;;;;;;5076746;28;20464;-89
2023/10/04 04:15:34;;;;;;;;;;;;;;;;;;;;;
2023/10/04 04:18:21;;;;;;;5.22;2.10;;;12.30;99.90;;;;;;5059446;28;20202;-89
2023/10/04 04:24:09;;;;;;;4.15;2.42;;;12.10;99.90;;;;;;5889214;22;20447;-88
2023/10/04 04:26:58;;;;;;;3.35;2.28;;;11.80;99.90;;;;;;5069075;28;20540;-90
2023/10/04 04:29:29;;;;;;;2.60;2.05;;;12.60;99.90;;;;;;5065330;28;20271;-88
2023/10/04 04:31:59;;;;;;;4.38;2.58;;;12.00;99.90;;;;;;5067726;28;20179;-90
2023/10/04 04:34:41;;;;;;;2.60;2.20;;;12.90;99.90;;;;;;5068444;28;20531;-90
2023/10/04 04:37:08;;;;;;;4.50;2.85;;;10.40;99.90;;;;;;5062782;28;20211;-88
2023/10/04 04:39:34;;;;;;;3.38;2.40;;;12.30;99.90;;;;;;5069960;28;20198;-86
2023/10/04 04:42:00;;;;;;;3.20;2.73;;;12.10;99.90;;;;;;5067900;28;20185;-87
2023/10/04 04:44:39;;;;;;;4.35;2.00;;;12.20;99.90;;;;;;5066178;28;20251;-88
2023/10/04 04:47:04;;;;;;;3.83;2.60;;;12.50;99.90;;;;;;5067660;28;20177;-88
2023/10/04 04:49:30;;;;;;;3.70;2.80;;;12.50;99.90;;;;;;5067385;28;20222;-86
2023/10/04 04:51:56;;;;;;;3.40;2.47;;;11.90;99.90;;;;;;5065067;28;20513;-88
2023/10/04 04:54:23;;;;;;;5.50;3.13;;;12.30;99.90;;;;;;5065234;28;20192;-90
2023/10/04 04:56:49;;;;;;;3.30;2.78;;;11.80;99.90;;;;;;5069540;28;20909;-89
2023/10/04 04:59:16;;;;;;;3.50;3.03;;;11.80;99.90;;;;;;5064535;28;20188;-86
2023/10/04 05:01:43;;;;;;;2.60;2.40;;;12.00;99.90;;;;;;5050070;28;20205;-87
2023/10/04 05:04:08;;;;;;;2.67;2.37;;;11.90;99.90;;;;;;5068091;28;20177;-87
2023/10/04 05:06:34;;;;;;;5.13;3.30;;;12.20;99.90;;;;;;5065613;28;20715;-86
2023/10/04 05:09:00;;;;;;;2.90;2.60;;;12.20;99.90;;;;;;5060398;28;20693;-87
2023/10/04 05:11:26;;;;;;;4.05;3.00;;;11.70;99.90;;;;;;5068506;28;20216;-86
2023/10/04 05:13:53;;;;;;;3.20;2.60;;;12.00;99.90;;;;;;5068750;28;20636;-86
2023/10/04 05:16:19;;;;;;;6.00;2.40;;;12.00;99.90;;;;;;5073694;28;20250;-87
2023/10/04 05:18:44;;;;;;;3.90;2.37;;;11.90;99.90;;;;;;5067331;28;20216;-86
2023/10/04 05:21:15;;;;;;;5.90;2.30;;;12.10;99.90;;;;;;5066265;28;20220;-84
2023/10/04 05:23:40;;;;;;;3.10;2.63;;;11.80;99.90;;;;;;5065804;28;20253;-86
2023/10/04 05:26:08;;;;;;;3.63;3.20;;;11.90;99.90;;;;;;5066079;28;20200;-86
2023/10/04 05:28:35;;;;;;;6.53;2.90;;;11.80;99.90;;;;;;5069710;28;20274;-86
2023/10/04 05:31:00;;;;;;;3.80;2.97;;;12.10;99.90;;;;;;5066157;28;20662;-87
2023/10/04 05:33:26;;;;;;;5.30;3.40;;;12.10;99.90;;;;;;5072230;28;20226;-87
2023/10/04 05:35:55;;;;;;;4.03;2.80;;;11.60;99.90;;;;;;5067548;28;20439;-86
2023/10/04 05:38:22;;;;;;;3.80;3.28;;;12.00;99.90;;;;;;5066403;28;20442;-87
2023/10/04 05:40:49;;;;;;;6.40;2.90;;;11.50;99.90;;;;;;5068394;28;20226;-86
2023/10/04 05:43:16;;;;;;;3.13;2.80;;;11.60;99.90;;;;;;5067450;28;20208;-85
2023/10/04 05:45:43;;;;;;;4.50;3.20;;;12.10;99.90;;;;;;5071842;28;20181;-86
2023/10/04 05:48:09;;;;;;;4.32;2.55;;;11.70;99.90;;;;;;5070178;28;20185;-86
2023/10/04 05:50:35;;;;;;;2.88;2.67;;;12.20;99.90;;;;;;5066390;28;20188;-86
2023/10/04 05:53:06;;;;;;;4.70;2.72;;;11.70;99.90;;;;;;5068961;28;20211;-86
2023/10/04 05:55:34;;;;;;;6.57;3.15;;;12.00;99.90;;;;;;5073085;28;20185;-87
2023/10/04 05:57:59;;;;;;;8.88;6.13;;;12.10;99.90;;;;;;5070242;28;20223;-85
2023/10/04 06:00:27;;;;;;;3.30;2.90;;;11.90;99.90;;;;;;5071154;28;20185;-86
2023/10/04 06:03:01;;;;;;;5.65;3.20;;;11.70;99.90;;;;;;5067334;28;20214;-86
2023/10/04 06:05:28;;;;;;;5.35;3.20;;;11.80;99.90;;;;;;5066497;28;20183;-86
2023/10/04 06:07:57;;;;;;;5.78;4.05;;;12.00;99.90;;;;;;5067913;28;20273;-86
2023/10/04 06:10:26;;;;;;;3.90;2.60;;;12.00;99.90;;;;;;5069731;28;20183;-86
2023/10/04 06:12:56;;;;;;;3.67;3.33;;;12.10;99.90;;;;;;5066189;28;20280;-86
2023/10/04 06:15:24;;;;;;;3.17;2.85;;;12.10;99.90;;;;;;5066810;28;20272;-87
2023/10/04 06:17:52;;;;;;;7.13;3.10;;;12.10;99.90;;;;;;5067610;28;20254;-86
2023/10/04 06:20:28;;;;;;;2.75;2.42;;;12.00;99.90;;;;;;5069433;28;20219;-86
2023/10/04 06:22:59;;;;;;;6.47;2.90;;;12.30;99.90;;;;;;5084835;28;20226;-86
2023/10/04 06:25:27;;;;;;;6.35;4.55;;;12.10;99.90;;;;;;5067470;28;20193;-88
2023/10/04 06:27:54;;;;;;;8.32;4.20;;;12.50;99.90;;;;;;5064519;28;20662;-87
2023/10/04 06:30:22;;;;;;;8.98;4.40;;;12.40;99.90;;;;;;5082988;28;20272;-87
2023/10/04 06:32:49;;;;;;;4.13;3.00;;;12.30;99.90;;;;;;5072295;28;20234;-87
2023/10/04 06:35:16;;;;;;;4.82;3.28;;;12.40;99.90;;;;;;5070988;28;20284;-88
2023/10/04 06:37:41;;;;;;;4.25;3.00;;;12.60;99.90;;;;;;5070941;28;20205;-88
2023/10/04 06:40:15;;;;;;;6.20;4.03;;;12.30;99.90;;;;;;5070033;28;20231;-87
2023/10/04 06:42:44;;;;;;;6.53;3.63;;;12.70;99.90;;;;;;5066591;28;20228;-86
2023/10/04 06:45:12;;;;;;;4.60;3.10;;;12.50;99.90;;;;;;5072426;28;20269;-86
2023/10/04 06:47:38;;;;;;;4.25;3.00;;;12.70;99.90;;;;;;5069980;28;20185;-88
2023/10/04 06:50:06;;;;;;;5.82;3.30;;;13.00;99.90;;;;;;5069256;28;20185;-87
2023/10/04 06:52:32;;;;;;;4.93;3.60;;;12.70;99.90;;;;;;5070596;28;20433;-87
2023/10/04 06:54:58;;;;;;;5.10;3.07;;;13.40;99.90;;;;;;5072307;28;20204;-87
2023/10/04 06:57:23;;;;;;;5.10;3.37;;;13.40;99.90;;;;;;5070522;28;20274;-86
2023/10/04 06:59:49;;;;;;;4.30;3.00;;;13.60;99.90;;;;;;5070672;28;20188;-87
2023/10/04 07:02:14;;;;;;;5.33;2.70;;;13.50;99.90;;;;;;5072648;28;20894;-87
2023/10/04 07:04:40;;;;;;;6.60;3.50;;;13.30;99.90;;;;;;5072449;28;20184;-87
2023/10/04 07:07:06;;;;;;;3.07;2.60;;;13.30;99.90;;;;;;5070518;28;20185;-86
2023/10/04 07:09:31;;;;;;;4.90;3.50;;;13.60;99.90;;;;;;5056897;28;20193;-85
2023/10/04 07:11:57;;;;;;;10.80;6.67;;;14.10;99.90;;;;;;5069499;28;20703;-86
2023/10/04 07:14:23;;;;;;;6.05;3.25;;;14.10;99.90;;;;;;5069084;28;20189;-86
2023/10/04 07:16:48;;;;;;;5.10;2.80;;;13.80;99.90;;;;;;5071208;28;20205;-86
2023/10/04 07:19:16;;;;;;;7.30;2.87;;;14.30;99.90;;;;;;5070521;28;20524;-85
2023/10/04 07:21:41;;;;;;;4.68;3.05;;;14.40;99.90;;;;;;5069379;28;20280;-87
2023/10/04 07:24:07;;;;;;;6.20;3.03;;;14.50;99.90;;;;;;5071939;28;20300;-86
2023/10/04 07:26:35;;;;;;;3.80;2.90;;;14.60;99.90;;;;;;5072288;28;20215;-85
2023/10/04 07:29:02;;;;;;;6.97;2.88;;;14.30;99.90;;;;;;5069080;28;20188;-85
2023/10/04 07:31:28;;;;;;;5.55;2.90;;;15.40;99.90;;;;;;5072513;28;20193;-86
2023/10/04 07:33:53;;;;;;;6.43;3.43;;;14.80;99.90;;;;;;5071095;28;20878;-86
2023/10/04 07:36:19;;;;;;;3.83;2.33;;;14.90;99.90;;;;;;5073224;28;20211;-86
2023/10/04 07:38:46;;;;;;;3.15;2.65;;;15.10;99.90;;;;;;5075829;28;20182;-85
2023/10/04 07:41:11;;;;;;;4.90;2.13;;;15.40;99.90;;;;;;5070786;28;20185;-86
2023/10/04 07:43:37;;;;;;;3.77;2.37;;;15.80;99.90;;;;;;5073466;28;20207;-86
2023/10/04 07:46:03;;;;;;;3.70;2.10;;;15.70;99.90;;;;;;5073431;28;20181;-86
2023/10/04 07:48:29;;;;;;;2.92;2.20;;;15.90;99.90;;;;;;5071178;28;20180;-86
2023/10/04 07:50:55;;;;;;;2.27;1.97;;;17.20;99.90;;;;;;5070577;28;20196;-86
2023/10/04 07:53:21;;;;;;;5.17;2.70;;;16.60;99.90;;;;;;5071165;28;20690;-86
2023/10/04 07:55:49;;;;;;;3.97;1.90;;;16.40;99.90;;;;;;5067150;28;20222;-86
2023/10/04 07:58:14;;;;;;;4.65;1.70;;;16.00;99.90;;;;;;5070506;28;20677;-86
2023/10/04 08:00:41;;;;;;;3.30;1.77;;;16.90;99.90;;;;;;5070687;28;20272;-85
2023/10/04 08:03:08;;;;;;;3.22;1.63;;;16.50;99.90;;;;;;5067929;28;20204;-86
2023/10/04 08:05:35;;;;;;;3.20;1.95;;;17.00;99.90;;;;;;5071530;28;20211;-86
2023/10/04 08:08:02;;;;;;;4.22;2.33;;;16.90;99.90;;;;;;5067289;28;20188;-85
2023/10/04 08:10:31;;;;;;;6.97;1.85;;;17.40;99.90;;;;;;5067771;28;20209;-85
2023/10/04 08:13:02;;;;;;;2.45;1.60;;;17.80;99.90;;;;;;5070980;28;20703;-85
2023/10/04 08:15:29;;;;;;;3.50;1.80;;;16.60;99.90;;;;;;5068141;28;20189;-86
2023/10/04 08:17:56;;;;;;;4.70;2.78;;;16.30;99.90;;;;;;5070138;28;20207;-86
2023/10/04 08:20:23;;;;;;;6.07;2.65;;;17.10;99.90;;;;;;5069278;28;20200;-86
2023/10/04 08:22:50;;;;;;;3.97;2.40;;;17.30;99.90;;;;;;5070001;28;20201;-87
2023/10/04 08:25:17;;;;;;;4.35;1.90;;;17.10;99.90;;;;;;5068166;28;20688;-85
2023/10/04 08:27:43;;;;;;;3.38;1.75;;;17.00;99.90;;;;;;5070922;28;20608;-87
2023/10/04 08:30:14;;;;;;;3.95;1.80;;;16.90;99.90;;;;;;5065495;28;20193;-86
2023/10/04 08:32:48;;;;;;;3.50;1.83;;;16.90;99.90;;;;;;5088123;28;20200;-87
2023/10/04 08:38:10;;;;;;;4.53;1.40;;;17.60;99.70;;;;;;5053063;28;20796;-86
2023/10/04 08:40:41;;;;;;;2.03;1.40;;;17.60;97.30;;;;;;5067772;28;20267;-86
2023/10/04 08:43:10;;;;;;;2.58;1.40;;;17.70;96.90;;;;;;5068333;28;20269;-86
2023/10/04 08:45:36;;;;;;;4.70;2.80;;;17.70;96.20;;;;;;5069737;28;20241;-87
2023/10/04 08:48:02;;;;;;;3.95;2.10;;;17.50;95.10;;;;;;5070206;28;20180;-88
2023/10/04 08:50:27;;;;;;;3.27;1.57;;;17.30;95.30;;;;;;5070831;28;20185;-87
2023/10/04 08:53:10;;;;;;;2.77;2.00;;;17.20;95.80;;;;;;5067964;28;21337;-86
2023/10/04 08:55:41;;;;;;;3.88;2.50;;;17.40;95.60;;;;;;5067845;28;20177;-87
2023/10/04 08:58:08;;;;;;;5.03;2.03;;;17.80;96.00;;;;;;5068045;28;20292;-87
2023/10/04 09:00:35;;;;;;;2.80;1.50;;;17.50;95.00;;;;;;5071346;28;20228;-86
2023/10/04 09:03:07;;;;;;;3.55;2.05;;;17.90;95.20;;;;;;5070442;28;20204;-86
2023/10/04 09:05:34;;;;;;;4.25;2.60;;;17.90;95.40;;;;;;5067374;28;20177;-86
2023/10/04 09:08:04;;;;;;;3.72;1.98;;;17.80;95.30;;;;;;5070003;28;20605;-86
2023/10/04 09:10:32;;;;;;;4.70;1.70;;;17.70;94.60;;;;;;5068685;28;20181;-86
2023/10/04 09:13:03;;;;;;;3.05;1.60;;;17.60;94.90;;;;;;5069489;28;20218;-85
2023/10/04 09:15:30;;;;;;;3.35;1.85;;;17.60;95.80;;;;;;5063628;28;20197;-86
2023/10/04 09:17:57;;;;;;;2.13;1.65;;;17.60;95.60;;;;;;5063436;28;20204;-86
2023/10/04 09:20:30;;;;;;;2.40;1.30;;;17.90;94.80;;;;;;5070253;28;20230;-87
2023/10/04 09:22:59;;;;;;;1.83;1.40;;;18.10;95.00;;;;;;5070920;28;20230;-86
2023/10/04 09:25:36;;;;;;;6.72;1.88;;;18.10;94.70;;;;;;5070429;28;20189;-85
2023/10/04 09:28:04;;;;;;;2.03;1.58;;;18.60;94.60;;;;;;5064102;28;20292;-85
2023/10/04 09:30:31;;;;;;;2.80;1.67;;;18.20;93.90;;;;;;5065720;28;20185;-86
2023/10/04 09:32:57;;;;;;;3.15;1.98;;;19.00;94.60;;;;;;5068966;28;20204;-87
2023/10/04 09:35:23;;;;;;;2.83;1.30;;;18.10;93.80;;;;;;5067067;28;20526;-87
2023/10/04 09:37:49;;;;;;;2.73;1.47;;;18.90;92.90;;;;;;5065985;28;20223;-85
2023/10/04 09:40:17;;;;;;;3.17;2.60;;;19.70;92.00;;;;;;5066917;28;20188;-86
2023/10/04 09:42:49;;;;;;;2.00;1.67;;;20.80;90.30;;;;;;5068612;28;20200;-87
2023/10/04 09:45:15;;;;;;;1.80;1.63;;;22.10;86.20;;;;;;5064029;28;20799;-87
2023/10/04 09:47:42;;;;;;;2.30;1.30;;;23.30;81.80;;;;;;5071476;28;20514;-85
2023/10/04 09:50:20;;;;;;;2.90;1.50;;;23.80;80.70;;;;;;5068231;28;20741;-87
2023/10/04 09:52:46;;;;;;;3.87;1.27;;;22.80;80.30;;;;;;5068043;28;20496;-86
2023/10/04 09:55:13;;;;;;;4.07;2.07;;;22.30;81.30;;;;;;5067125;28;20502;-86
2023/10/04 09:57:42;;;;;;;4.53;1.80;;;22.10;83.30;;;;;;5068015;28;20215;-86
2023/10/04 10:00:12;;;;;;;2.00;1.65;;;21.80;83.10;;;;;;5068322;28;20187;-86
2023/10/04 10:02:39;;;;;;;4.00;1.95;;;21.20;82.20;;;;;;5069458;28;20200;-86
2023/10/04 10:05:09;;;;;;;4.00;1.63;;;21.50;83.20;;;;;;5068849;28;20181;-85
2023/10/04 10:07:37;;;;;;;3.47;1.75;;;20.90;83.50;;;;;;5062984;28;20653;-86
2023/10/04 10:10:11;;;;;;;1.73;1.23;;;21.20;84.20;;;;;;5090477;28;20228;-86
2023/10/04 10:12:38;;;;;;;2.55;1.70;;;20.50;84.30;;;;;;5073533;28;20259;-85
2023/10/04 10:15:05;;;;;;;4.22;1.60;;;21.10;85.60;;;;;;5067514;28;20319;-86
2023/10/04 10:17:33;;;;;;;2.45;1.30;;;20.60;86.10;;;;;;5062456;28;20215;-86
2023/10/04 10:20:00;;;;;;;2.67;1.75;;;21.10;85.40;;;;;;5071427;28;20189;-86
2023/10/04 10:22:26;;;;;;;2.30;1.60;;;20.20;85.10;;;;;;5072772;28;20699;-85
2023/10/04 10:24:57;;;;;;;3.50;1.60;;;20.20;86.50;;;;;;5073140;28;20193;-85
2023/10/04 10:27:24;;;;;;;3.80;1.63;;;20.30;85.60;;;;;;5070548;28;20185;-86
2023/10/04 10:29:51;;;;;;;2.50;1.95;;;20.20;85.90;;;;;;5072493;28;20657;-86
2023/10/04 10:32:22;;;;;;;2.70;1.50;;;19.70;85.40;;;;;;5072489;28;20491;-86
2023/10/04 10:34:52;;;;;;;4.32;1.73;;;20.00;86.50;;;;;;5065840;28;20209;-86
2023/10/04 10:37:22;;;;;;;3.10;2.10;;;20.30;86.80;;;;;;5070761;28;20192;-86
2023/10/04 10:39:53;;;;;;;2.55;2.05;;;19.80;86.80;;;;;;5070942;28;20178;-85
2023/10/04 10:42:19;;;;;;;2.22;1.75;;;20.20;88.50;;;;;;5070609;28;20776;-86
2023/10/04 10:44:46;;;;;;;3.78;1.65;;;20.00;88.70;;;;;;5070365;28;20280;-87
2023/10/04 10:47:23;;;;;;;2.38;1.80;;;20.00;88.70;;;;;;5070525;28;20184;-86
2023/10/04 10:50:12;;;;;;;2.15;1.52;;;19.60;87.80;;;;;;5069451;28;20189;-86
2023/10/04 10:52:39;;;;;;;2.95;1.80;;;19.40;87.30;;;;;;5068693;28;20200;-86
2023/10/04 10:55:16;;;;;;;3.70;2.40;;;19.70;89.60;;;;;;5067770;28;20191;-86
2023/10/04 10:57:45;;;;;;;10.25;1.83;;;18.90;88.50;;;;;;5070244;28;20633;-87
2023/10/04 11:02:40;;;;;;;5.47;1.77;;;18.90;90.00;;;;;;5073830;28;20197;-85
2023/10/04 11:05:06;;;;;;;2.40;2.00;;;19.10;89.10;;;;;;5069924;28;20726;-85
2023/10/04 11:07:32;;;;;;;1.30;1.20;;;18.90;88.90;;;;;;5070866;28;20281;-86
2023/10/04 11:09:58;;;;;;;4.70;2.60;;;19.30;87.80;;;;;;5070556;28;20361;-86
2023/10/04 11:12:24;;;;;;;2.83;1.67;;;20.00;87.50;;;;;;5069982;28;20461;-86
2023/10/04 11:14:53;;;;;;;2.65;1.45;;;19.80;84.70;;;;;;5070739;28;20185;-86
2023/10/04 11:17:22;;;;;;;2.47;1.50;;;20.00;82.00;;;;;;5070351;28;20220;-86
2023/10/04 11:19:50;;;;;;;2.65;1.80;;;21.00;82.30;;;;;;5069404;28;20174;-87
2023/10/04 11:22:16;;;;;;;3.53;2.55;;;19.80;82.70;;;;;;5068812;28;20645;-86
2023/10/04 11:24:44;;;;;;;3.80;2.10;;;19.80;84.10;;;;;;5065894;28;20209;-86
2023/10/04 11:27:10;;;;;;;3.10;2.25;;;19.80;85.20;;;;;;5069710;28;20195;-86
2023/10/04 11:29:37;;;;;;;3.05;1.70;;;19.90;85.00;;;;;;5063374;28;20196;-86
2023/10/04 11:32:05;;;;;;;2.65;1.50;;;19.80;84.80;;;;;;5069165;28;20676;-86
2023/10/04 11:34:37;;;;;;;3.47;2.95;;;19.50;85.30;;;;;;5072440;28;20216;-87
2023/10/04 11:37:03;;;;;;;1.98;1.40;;;20.00;87.90;;;;;;5067697;28;20610;-86
2023/10/04 11:39:33;;;;;;;2.47;2.00;;;20.00;87.70;;;;;;5070233;28;20185;-87
2023/10/04 11:42:03;;;;;;;3.35;1.70;;;20.50;87.40;;;;;;5064031;28;20448;-86
2023/10/04 11:44:33;;;;;;;2.97;1.42;;;20.30;85.30;;;;;;5079852;28;20200;-86
2023/10/04 11:47:00;;;;;;;3.38;1.98;;;20.30;85.10;;;;;;5065416;28;20180;-86
2023/10/04 11:49:29;;;;;;;2.28;1.50;;;19.90;84.80;;;;;;5067673;28;20189;-86
2023/10/04 11:52:01;;;;;;;2.58;1.83;;;19.90;84.90;;;;;;5068034;28;20657;-86
2023/10/04 11:54:45;;;;;;;3.85;2.42;;;19.50;85.10;;;;;;5064143;28;20181;-86
2023/10/04 11:57:11;;;;;;;8.15;7.07;;;19.40;86.90;;;;;;5069251;28;20216;-86
2023/10/04 11:59:39;;;;;;;2.42;1.70;;;19.30;87.70;;;;;;5065093;28;20181;-86
2023/10/04 12:02:06;;;;;;;2.72;1.75;;;20.00;86.70;;;;;;5070105;28;20337;-86
2023/10/04 12:04:32;;;;;;;2.00;1.60;;;19.70;86.10;;;;;;5069891;28;20243;-86
2023/10/04 12:07:09;;;;;;;4.13;1.88;;;19.60;85.50;;;;;;5068720;28;20191;-86
2023/10/04 12:09:36;;;;;;;4.03;1.70;;;19.30;85.80;;;;;;5070342;28;20181;-86
2023/10/04 12:12:03;;;;;;;3.47;2.17;;;19.70;85.10;;;;;;5068952;28;20573;-86
2023/10/04 12:14:31;;;;;;;2.78;1.80;;;19.40;85.30;;;;;;5084119;28;20181;-84
2023/10/04 12:17:04;;;;;;;2.65;2.08;;;19.70;85.70;;;;;;5078241;28;20254;-86
2023/10/04 12:19:34;;;;;;;3.08;1.60;;;19.70;84.90;;;;;;5067811;28;20209;-86
2023/10/04 12:22:02;;;;;;;2.35;1.50;;;19.60;82.50;;;;;;5067014;28;20236;-86
2023/10/04 12:24:30;;;;;;;2.55;1.27;;;20.00;82.20;;;;;;5071047;28;20196;-85
2023/10/04 12:26:58;;;;;;;2.17;1.48;;;20.40;82.40;;;;;;5066015;28;20190;-86
2023/10/04 12:29:26;;;;;;;1.38;1.25;;;20.40;80.30;;;;;;5067620;28;20548;-86
2023/10/04 12:31:53;;;;;;;2.35;1.30;;;20.60;81.10;;;;;;5064826;28;20188;-87
2023/10/04 12:34:18;;;;;;;6.90;2.65;;;20.30;79.20;;;;;;5072925;28;20214;-85
2023/10/04 12:36:44;;;;;;;2.90;1.60;;;20.80;80.90;;;;;;5049208;28;20303;-85
2023/10/04 12:39:12;;;;;;;1.80;1.30;;;20.80;79.80;;;;;;5064281;28;20188;-87
2023/10/04 12:41:39;;;;;;;1.95;1.30;;;20.80;79.40;;;;;;5067251;28;20188;-85
2023/10/04 12:44:04;;;;;;;3.65;2.28;;;20.40;79.30;;;;;;5066131;28;20197;-87
2023/10/04 12:46:30;;;;;;;2.30;1.57;;;20.50;78.00;;;;;;5070152;28;20258;-85
2023/10/04 12:48:57;;;;;;;3.07;1.40;;;20.80;78.40;;;;;;5068158;28;20268;-85
2023/10/04 12:51:23;;;;;;;3.13;1.58;;;21.10;78.80;;;;;;5067905;28;20535;-85
2023/10/04 12:53:49;;;;;;;2.10;1.50;;;20.60;76.80;;;;;;5072207;28;20215;-86
2023/10/04 12:56:16;;;;;;;2.17;1.10;;;20.60;77.10;;;;;;5068794;28;20286;-85
2023/10/04 12:58:42;;;;;;;2.17;1.30;;;21.10;76.90;;;;;;5068572;28;20199;-87
2023/10/04 13:01:07;;;;;;;4.28;1.60;;;20.50;77.90;;;;;;5066171;28;20187;-86